Clearwater, Florida
Current Conditions -  °F | °C
As of 3:15 PM on Wednesday 26 Nov 2014 (Local Time) from KCLW Reporting Station
Clear Clear  
Wind Chill: 61°   Ceiling: Unl
Heat Index: 61°   Visibility: 10mi
Dew Point: 45°   Wind: 14mph
Humidity: 55%   Direction: 340°NNW
Pressure: 30.16"   Gusts: 21mph
Location:  27.97°N, 82.8°W
Report Text: KCLW 262015Z AUTO 34012G18KT 10SM CLR 16/07 A3016 RMK AO2
Loading
Personal Weather Stations






























Interactive Weather Map New forecast layout! Learn more

10-Day Weather Forecast

Advertisements
Track Severe Weather on mobile